Time;durP1;ratioP1;P1;durP2;ratioP2;P2;SDS_P1;SDS_P2;PMS_P1;PMS_P2;Temp;Humidity;BMP_temperature;BMP_pressure;BME280_temperature;BME280_humidity;BME280_pressure;Samples;Min_cycle;Max_cycle;Signal;HPM_P1;HPM_P2
2022/03/31 00:00:44;;;;;;;3.65;2.45;;;;;;;2.09;52.62;100411.97;5027837;28;20044;-75
2022/03/31 00:03:13;;;;;;;8.27;2.40;;;;;;;1.99;52.46;100415.53;5025353;28;20069;-80
2022/03/31 00:05:39;;;;;;;3.95;2.45;;;;;;;1.94;52.75;100416.44;5024158;28;20064;-78
2022/03/31 00:08:07;;;;;;;5.57;3.00;;;;;;;1.83;53.34;100407.97;5023510;28;20051;-81
2022/03/31 00:10:38;;;;;;;7.03;1.92;;;;;;;2.05;52.97;100406.00;5010128;28;20033;-81
2022/03/31 00:13:09;;;;;;;3.15;2.13;;;;;;;2.08;53.18;100413.69;5007866;28;20033;-79
2022/03/31 00:15:35;;;;;;;7.00;2.38;;;;;;;2.11;52.59;100405.09;5047852;28;20831;-80
2022/03/31 00:18:03;;;;;;;5.25;2.97;;;;;;;2.00;53.25;100405.22;5000306;28;20088;-79
2022/03/31 00:20:29;;;;;;;5.60;3.05;;;;;;;2.11;53.14;100412.81;5024845;28;20056;-80
2022/03/31 00:22:55;;;;;;;4.53;2.60;;;;;;;1.96;53.55;100415.56;5040216;28;20049;-83
2022/03/31 00:25:23;;;;;;;4.25;3.15;;;;;;;2.14;52.92;100410.19;5031857;28;20266;-81
2022/03/31 00:27:49;;;;;;;9.43;2.90;;;;;;;2.09;53.18;100405.09;5025949;28;20410;-78
2022/03/31 00:30:15;;;;;;;4.82;3.40;;;;;;;2.01;52.71;100398.31;5025323;28;20111;-79
2022/03/31 00:32:41;;;;;;;8.18;3.22;;;;;;;1.87;53.37;100409.66;5044160;28;20088;-82
2022/03/31 00:35:08;;;;;;;5.68;3.13;;;;;;;2.10;52.92;100398.19;5043199;28;20050;-81
2022/03/31 00:37:34;;;;;;;6.93;3.38;;;;;;;2.08;52.88;100399.94;5020875;28;20041;-80
2022/03/31 00:40:00;;;;;;;5.15;2.60;;;;;;;1.93;53.22;100404.44;5044755;28;20059;-76
2022/03/31 00:42:26;;;;;;;5.43;2.95;;;;;;;1.94;53.39;100398.38;5027249;28;20099;-81
2022/03/31 00:44:52;;;;;;;5.63;2.92;;;;;;;2.01;53.55;100399.16;5024496;28;20094;-77
2022/03/31 00:47:18;;;;;;;4.38;2.72;;;;;;;2.01;53.17;100393.16;5025418;28;20044;-79
2022/03/31 00:49:44;;;;;;;4.50;2.72;;;;;;;1.96;53.23;100389.81;5041506;28;20226;-81
2022/03/31 00:52:11;;;;;;;2.58;2.10;;;;;;;1.75;54.26;100398.59;5041392;28;20167;-78
2022/03/31 00:54:38;;;;;;;4.43;2.25;;;;;;;1.89;53.34;100389.88;5025711;28;20128;-81
2022/03/31 00:57:06;;;;;;;5.80;2.45;;;;;;;1.84;53.96;100386.50;5026632;28;20041;-81
2022/03/31 00:59:32;;;;;;;5.07;3.03;;;;;;;1.73;54.57;100388.34;5025443;28;20048;-75
2022/03/31 01:01:59;;;;;;;5.18;2.78;;;;;;;2.05;53.62;100379.38;5041410;28;20414;-81
2022/03/31 01:04:26;;;;;;;4.55;2.50;;;;;;;2.02;53.64;100379.38;5032422;28;20075;-78
2022/03/31 01:06:52;;;;;;;3.97;2.38;;;;;;;2.05;53.53;100384.53;5024412;28;20043;-81
2022/03/31 01:09:18;;;;;;;7.30;2.83;;;;;;;1.98;53.82;100378.59;5019479;28;20021;-80
2022/03/31 01:11:45;;;;;;;7.22;3.00;;;;;;;2.04;53.52;100372.50;5025869;28;20086;-81
2022/03/31 01:14:11;;;;;;;7.88;3.20;;;;;;;1.69;54.22;100381.50;5042103;28;20064;-78
2022/03/31 01:16:37;;;;;;;4.43;3.28;;;;;;;1.66;54.44;100374.69;5045000;28;20654;-82
2022/03/31 01:19:08;;;;;;;4.88;3.45;;;;;;;1.61;54.05;100373.00;5023259;28;20045;-80
2022/03/31 01:21:48;;;;;;;6.88;3.45;;;;;;;1.49;54.24;100369.69;5008162;28;20026;-81
2022/03/31 01:24:14;;;;;;;7.10;3.15;;;;;;;1.29;54.36;100364.72;5025270;28;20052;-80
2022/03/31 01:26:40;;;;;;;5.93;4.30;;;;;;;1.34;54.52;100364.66;5024601;28;20033;-82
2022/03/31 01:29:08;;;;;;;6.32;3.83;;;;;;;1.45;54.41;100362.00;5024987;28;20391;-81
2022/03/31 01:31:35;;;;;;;5.05;3.22;;;;;;;1.42;54.70;100368.06;5009253;28;20032;-79
2022/03/31 01:34:01;;;;;;;5.57;3.72;;;;;;;1.52;54.09;100358.50;5025082;28;20061;-80
2022/03/31 01:36:27;;;;;;;4.50;3.60;;;;;;;1.30;54.83;100369.00;5050080;28;20033;-81
2022/03/31 01:38:54;;;;;;;3.03;2.63;;;;;;;1.24;54.38;100363.91;5045663;28;20049;-79
2022/03/31 01:41:22;;;;;;;3.50;3.08;;;;;;;0.93;55.04;100358.19;5029710;28;20518;-79
2022/03/31 01:43:48;;;;;;;2.65;2.20;;;;;;;0.83;55.49;100362.53;5048492;28;20045;-77
2022/03/31 01:46:13;;;;;;;3.05;2.75;;;;;;;1.06;55.14;100358.91;5046655;28;20036;-80
2022/03/31 01:48:39;;;;;;;2.60;1.58;;;;;;;0.99;54.94;100347.84;5046695;28;20040;-79
2022/03/31 01:51:05;;;;;;;2.47;1.85;;;;;;;0.89;55.10;100351.34;5043705;28;20086;-81
2022/03/31 01:53:32;;;;;;;2.05;1.17;;;;;;;0.78;55.56;100342.88;5026907;28;20048;-80
2022/03/31 01:55:57;;;;;;;2.40;1.13;;;;;;;0.69;55.67;100351.50;5030438;28;20025;-79
2022/03/31 01:58:23;;;;;;;1.73;1.08;;;;;;;0.84;55.20;100342.81;5027331;28;20659;-76
2022/03/31 02:00:50;;;;;;;1.67;1.40;;;;;;;0.83;55.29;100338.53;5046876;28;20115;-80
2022/03/31 02:03:16;;;;;;;1.50;1.00;;;;;;;0.74;55.30;100331.72;5043131;28;20045;-79
2022/03/31 02:05:42;;;;;;;2.10;1.25;;;;;;;0.69;55.78;100331.78;5025262;28;20083;-76
2022/03/31 02:08:08;;;;;;;1.90;1.42;;;;;;;0.58;55.73;100336.13;5030708;28;20410;-80
2022/03/31 02:10:33;;;;;;;2.05;1.48;;;;;;;0.50;55.79;100335.34;5028188;28;20032;-82
2022/03/31 02:13:01;;;;;;;2.17;1.33;;;;;;;0.42;56.30;100339.69;5027438;28;20033;-81
2022/03/31 02:15:29;;;;;;;4.53;1.30;;;;;;;0.45;55.47;100337.94;5044137;28;20036;-79
2022/03/31 02:17:55;;;;;;;3.28;1.38;;;;;;;0.31;55.79;100329.47;5010186;28;20210;-79
2022/03/31 02:20:22;;;;;;;1.55;1.20;;;;;;;0.15;56.47;100328.72;5047922;28;20032;-79
2022/03/31 02:22:47;;;;;;;1.67;1.25;;;;;;;0.44;55.92;100327.69;5027606;28;20057;-79
2022/03/31 02:25:13;;;;;;;1.80;1.50;;;;;;;0.43;55.70;100325.97;5047790;28;20563;-80
2022/03/31 02:27:39;;;;;;;2.05;1.55;;;;;;;0.56;55.34;100327.56;5043711;28;20582;-80
2022/03/31 02:30:06;;;;;;;1.83;1.25;;;;;;;0.59;55.13;100327.56;5044684;28;20033;-78
2022/03/31 02:32:32;;;;;;;2.85;1.40;;;;;;;0.46;55.81;100326.81;5044275;28;20660;-83
2022/03/31 02:34:58;;;;;;;2.75;1.50;;;;;;;0.31;55.63;100326.06;5043618;28;20666;-81
2022/03/31 02:37:25;;;;;;;2.03;1.63;;;;;;;0.04;55.70;100333.06;5030837;28;20048;-82
2022/03/31 02:39:51;;;;;;;2.47;1.58;;;;;;;-0.07;55.98;100333.09;5027957;28;20044;-80
2022/03/31 02:42:17;;;;;;;2.42;1.90;;;;;;;0.12;55.18;100333.00;5043156;28;20051;-81
2022/03/31 02:44:44;;;;;;;4.32;2.00;;;;;;;0.03;55.23;100327.06;5042307;28;20063;-79
2022/03/31 02:47:09;;;;;;;2.35;1.83;;;;;;;0.02;55.10;100324.50;5008507;28;20048;-81
2022/03/31 02:49:35;;;;;;;2.25;1.52;;;;;;;-0.06;54.91;100316.81;5043261;28;20344;-78
2022/03/31 02:52:01;;;;;;;2.80;1.80;;;;;;;-0.10;54.61;100311.69;5046694;28;20522;-82
2022/03/31 02:57:12;;;;;;;4.22;1.42;;;;;;;-0.31;54.70;100310.94;5045781;28;20049;-82
2022/03/31 02:59:38;;;;;;;2.47;1.52;;;;;;;-0.21;54.89;100312.63;5008901;28;20419;-80
2022/03/31 03:02:04;;;;;;;1.42;1.33;;;;;;;-0.23;54.87;100314.34;5026390;28;20075;-81
2022/03/31 03:04:30;;;;;;;1.92;1.15;;;;;;;-0.37;55.11;100305.81;5026788;28;20036;-80
2022/03/31 03:06:55;;;;;;;2.28;1.35;;;;;;;-0.31;54.97;100308.38;5040527;28;20051;-81
2022/03/31 03:09:21;;;;;;;3.33;1.85;;;;;;;-0.41;55.21;100304.16;5047715;28;20036;-80
2022/03/31 03:11:47;;;;;;;3.15;1.65;;;;;;;-0.41;54.84;100302.44;5040188;28;20308;-83
2022/03/31 03:14:14;;;;;;;3.15;1.77;;;;;;;-0.56;55.19;100295.63;5012260;28;20651;-77
2022/03/31 03:16:40;;;;;;;6.10;2.08;;;;;;;-0.59;55.09;100298.22;5040588;28;20509;-80
2022/03/31 03:19:06;;;;;;;3.20;2.35;;;;;;;-0.71;55.49;100293.09;5042121;28;20033;-78
2022/03/31 03:21:32;;;;;;;2.90;2.10;;;;;;;-0.74;55.87;100294.84;5041188;28;20025;-79
2022/03/31 03:23:57;;;;;;;4.03;1.60;;;;;;;-0.65;55.78;100289.69;5042202;28;20044;-80
2022/03/31 03:26:23;;;;;;;2.65;1.20;;;;;;;-0.67;55.73;100292.25;5026707;28;20406;-73
2022/03/31 03:28:48;;;;;;;2.60;1.67;;;;;;;-0.46;55.33;100295.59;5040673;28;20095;-79
2022/03/31 03:31:14;;;;;;;2.63;1.65;;;;;;;-0.53;55.36;100294.75;5048522;28;20052;-82
2022/03/31 03:33:40;;;;;;;2.13;1.33;;;;;;;-0.54;55.44;100298.19;5022834;28;20099;-79
2022/03/31 03:36:10;;;;;;;2.20;1.27;;;;;;;-0.52;55.54;100287.94;5027146;28;20029;-80
2022/03/31 03:38:35;;;;;;;1.83;1.58;;;;;;;-0.49;55.54;100287.91;5024301;28;20044;-78
2022/03/31 03:41:01;;;;;;;3.90;1.35;;;;;;;-0.47;55.48;100288.75;5047221;28;20044;-78
2022/03/31 03:43:28;;;;;;;3.15;1.58;;;;;;;-0.54;55.47;100284.50;5005750;28;20150;-78
2022/03/31 03:45:54;;;;;;;2.55;2.05;;;;;;;-0.46;55.37;100281.06;5023224;28;20033;-81
2022/03/31 03:48:21;;;;;;;3.20;1.48;;;;;;;-0.56;55.68;100290.50;5045562;28;20463;-81
2022/03/31 03:50:47;;;;;;;2.65;2.40;;;;;;;-0.42;55.45;100287.88;5025129;28;20051;-81
2022/03/31 03:53:12;;;;;;;3.10;2.20;;;;;;;-0.39;55.29;100287.03;5040497;28;20044;-80
2022/03/31 03:55:38;;;;;;;3.47;1.65;;;;;;;-0.44;55.46;100278.47;5028261;28;20025;-80
2022/03/31 03:58:04;;;;;;;3.03;2.15;;;;;;;-0.52;55.35;100282.78;5016625;28;20060;-77
2022/03/31 04:00:30;;;;;;;2.75;2.40;;;;;;;-0.42;55.27;100274.19;5046726;28;20116;-79
2022/03/31 04:02:56;;;;;;;6.20;2.70;;;;;;;-0.47;55.98;100278.50;5039773;28;20104;-80
2022/03/31 04:05:22;;;;;;;2.90;2.45;;;;;;;-0.36;55.32;100276.72;5029832;28;20036;-82
2022/03/31 04:07:48;;;;;;;5.35;3.45;;;;;;;-0.29;55.31;100275.84;5038367;28;20131;-79
2022/03/31 04:10:13;;;;;;;6.00;2.95;;;;;;;-0.47;55.85;100278.50;5025847;28;20064;-81
2022/03/31 04:12:39;;;;;;;4.88;3.08;;;;;;;-0.51;56.14;100276.78;5049497;28;20036;-77
2022/03/31 04:15:06;;;;;;;5.22;2.45;;;;;;;-0.40;55.87;100285.31;5066505;28;20041;-76
2022/03/31 04:17:35;;;;;;;4.38;2.92;;;;;;;-0.49;56.08;100278.50;5043438;28;20060;-79
2022/03/31 04:20:02;;;;;;;5.25;2.83;;;;;;;-0.47;56.19;100269.06;5042900;28;20386;-81
2022/03/31 04:22:28;;;;;;;6.95;3.40;;;;;;;-0.53;56.30;100273.38;5044460;28;20053;-79
2022/03/31 04:24:54;;;;;;;5.78;3.60;;;;;;;-0.78;56.91;100273.44;5043817;28;20048;-81
2022/03/31 04:27:20;;;;;;;4.65;3.05;;;;;;;-0.59;56.34;100275.13;5037910;28;20068;-79
2022/03/31 04:29:46;;;;;;;5.95;3.63;;;;;;;-0.61;56.68;100276.81;5022769;28;20118;-82
2022/03/31 04:32:12;;;;;;;10.25;3.85;;;;;;;-0.62;56.60;100281.94;5025279;28;20045;-80
2022/03/31 04:34:38;;;;;;;5.70;3.17;;;;;;;-0.53;56.54;100273.38;5026757;28;20099;-80
2022/03/31 04:37:04;;;;;;;5.45;3.10;;;;;;;-0.51;56.30;100275.06;5023118;28;20033;-81
2022/03/31 04:39:29;;;;;;;7.10;3.90;;;;;;;-0.54;56.59;100271.69;5024497;28;20031;-79
2022/03/31 04:41:55;;;;;;;7.80;3.38;;;;;;;-0.56;56.63;100284.50;5023753;28;20526;-78
2022/03/31 04:44:20;;;;;;;8.18;4.38;;;;;;;-0.37;56.17;100283.59;5041984;28;20036;-80
2022/03/31 04:46:46;;;;;;;7.35;3.42;;;;;;;-0.47;56.45;100288.75;5044474;28;20049;-80
2022/03/31 04:49:13;;;;;;;6.13;3.85;;;;;;;-0.60;56.55;100280.25;5038928;28;20041;-79
2022/03/31 04:51:39;;;;;;;8.35;3.65;;;;;;;-0.56;57.25;100281.94;5024173;28;20335;-79
2022/03/31 04:54:04;;;;;;;7.97;4.18;;;;;;;-0.37;56.50;100280.13;5001617;28;20053;-78
2022/03/31 04:56:30;;;;;;;8.18;4.53;;;;;;;-0.63;57.05;100283.69;5041898;28;20025;-79
2022/03/31 04:58:55;;;;;;;7.35;4.45;;;;;;;-0.61;57.18;100288.81;5026331;28;20040;-82
2022/03/31 05:01:23;;;;;;;7.07;5.15;;;;;;;-0.58;56.94;100284.50;5008822;28;20041;-81
2022/03/31 05:03:49;;;;;;;15.27;7.55;;;;;;;-0.47;57.27;100276.78;5040047;28;20056;-80
2022/03/31 05:06:15;;;;;;;10.57;5.15;;;;;;;-0.43;57.02;100280.19;5028789;28;20064;-80
2022/03/31 05:08:41;;;;;;;12.30;5.75;;;;;;;-0.58;57.53;100287.06;5043379;28;20544;-80
2022/03/31 05:11:07;;;;;;;10.00;5.47;;;;;;;-0.29;56.74;100287.84;5025852;28;20120;-80
2022/03/31 05:13:33;;;;;;;14.25;6.63;;;;;;;-0.52;57.24;100295.63;5043083;28;20049;-81
2022/03/31 05:15:58;;;;;;;12.35;6.80;;;;;;;-0.47;57.55;100294.75;5006942;28;20580;-81
2022/03/31 05:18:24;;;;;;;10.85;6.30;;;;;;;-0.41;57.09;100289.59;5028524;28;20457;-81
2022/03/31 05:20:49;;;;;;;17.23;6.63;;;;;;;-0.41;57.44;100293.88;5045561;28;20043;-80
2022/03/31 05:23:15;;;;;;;11.20;5.82;;;;;;;-0.31;57.32;100295.53;5032381;28;20051;-81
2022/03/31 05:25:40;;;;;;;12.85;5.47;;;;;;;-0.17;56.71;100293.78;5026533;28;20060;-79
2022/03/31 05:28:06;;;;;;;8.85;5.25;;;;;;;-0.40;57.23;100295.56;5046947;28;20033;-82
2022/03/31 05:30:32;;;;;;;9.48;5.18;;;;;;;-0.28;57.08;100300.69;5035177;28;20047;-79
2022/03/31 05:32:59;;;;;;;8.73;5.20;;;;;;;-0.05;56.71;100299.72;5029943;28;20104;-79
2022/03/31 05:35:27;;;;;;;8.43;5.32;;;;;;;-0.02;56.63;100289.41;5030298;28;20055;-78
2022/03/31 05:37:53;;;;;;;8.38;4.25;;;;;;;-0.23;57.02;100305.78;5027993;28;20124;-80
2022/03/31 05:40:19;;;;;;;8.57;3.92;;;;;;;-0.33;57.57;100302.38;5013295;28;20040;-80
2022/03/31 05:42:45;;;;;;;5.47;3.70;;;;;;;-0.61;58.20;100306.78;5046503;28;20033;-79
2022/03/31 05:45:12;;;;;;;7.25;4.15;;;;;;;-0.58;57.90;100307.59;5031985;28;20107;-82
2022/03/31 05:47:40;;;;;;;4.88;3.45;;;;;;;-0.48;57.77;100307.56;5026406;28;20044;-80
2022/03/31 05:50:08;;;;;;;5.82;3.63;;;;;;;-0.26;57.31;100309.22;5035576;28;20075;-77
2022/03/31 05:52:38;;;;;;;6.07;3.78;;;;;;;-0.29;57.35;100309.22;5041522;28;20167;-80
2022/03/31 05:55:08;;;;;;;5.82;3.60;;;;;;;-0.53;57.60;100317.00;5045320;28;20039;-79
2022/03/31 05:57:35;;;;;;;7.00;3.45;;;;;;;-0.38;57.42;100314.41;5028917;28;20102;-80
2022/03/31 06:00:04;;;;;;;5.40;4.85;;;;;;;-0.51;57.50;100315.28;5045425;28;20519;-81
2022/03/31 06:02:37;;;;;;;5.18;3.47;;;;;;;-0.33;57.03;100317.78;5041764;28;20513;-81
2022/03/31 06:05:03;;;;;;;5.95;3.78;;;;;;;-0.27;56.98;100322.06;5010785;28;20036;-81
2022/03/31 06:07:29;;;;;;;4.68;3.42;;;;;;;-0.39;57.14;100322.97;5024089;28;20045;-82
2022/03/31 06:09:54;;;;;;;5.70;3.80;;;;;;;-0.50;57.50;100327.25;5043954;28;20032;-81
2022/03/31 06:12:20;;;;;;;6.53;3.67;;;;;;;-0.80;58.08;100335.03;5026262;28;20080;-79
2022/03/31 06:14:45;;;;;;;7.78;4.43;;;;;;;-0.68;57.94;100323.03;5046106;28;20020;-82
2022/03/31 06:17:12;;;;;;;6.05;3.90;;;;;;;-0.41;57.11;100330.69;5025582;28;20049;-82
2022/03/31 06:19:37;;;;;;;6.55;3.83;;;;;;;-0.47;57.12;100330.69;5030102;28;20509;-75
2022/03/31 06:22:03;;;;;;;5.90;3.35;;;;;;;-0.44;56.88;100334.94;5026656;28;20029;-83
2022/03/31 06:24:28;;;;;;;6.43;3.88;;;;;;;-0.85;57.85;100334.19;5044454;28;20029;-80
2022/03/31 06:26:57;;;;;;;5.30;3.28;;;;;;;-1.01;58.29;100338.50;5025418;28;20032;-83
2022/03/31 06:29:25;;;;;;;4.90;3.35;;;;;;;-0.74;57.36;100331.63;5034118;28;20029;-76
2022/03/31 06:31:53;;;;;;;4.43;2.95;;;;;;;-0.94;58.20;100339.34;5063226;28;20576;-78
2022/03/31 06:34:20;;;;;;;6.00;4.00;;;;;;;-0.79;57.18;100338.47;5059715;28;20029;-80
2022/03/31 06:36:46;;;;;;;5.13;3.17;;;;;;;-1.10;58.06;100343.59;5045911;28;20029;-82
2022/03/31 06:39:13;;;;;;;5.00;4.07;;;;;;;-0.82;57.46;100341.88;5047418;28;20040;-81
2022/03/31 06:41:40;;;;;;;4.78;3.45;;;;;;;-1.10;57.77;100345.31;5030615;28;20033;-80
2022/03/31 06:44:08;;;;;;;6.30;3.50;;;;;;;-1.11;58.13;100357.25;5006905;28;20102;-83
2022/03/31 06:46:35;;;;;;;4.47;3.00;;;;;;;-0.84;57.64;100356.44;5039361;28;20029;-82
2022/03/31 06:49:01;;;;;;;4.75;2.47;;;;;;;-1.10;57.58;100358.97;5026417;28;20064;-82
2022/03/31 06:51:28;;;;;;;7.13;3.35;;;;;;;-1.51;58.77;100352.13;5026019;28;20041;-78
2022/03/31 06:53:57;;;;;;;6.47;3.15;;;;;;;-1.23;57.80;100358.13;5006777;28;20037;-81
2022/03/31 06:56:27;;;;;;;4.05;2.97;;;;;;;-1.30;57.93;100358.13;5042913;28;20032;-83
2022/03/31 06:58:57;;;;;;;4.72;2.90;;;;;;;-1.25;57.83;100361.53;5043071;28;20108;-81
2022/03/31 07:01:23;;;;;;;5.60;3.30;;;;;;;-1.14;57.28;100364.97;5024523;28;20418;-81
2022/03/31 07:03:49;;;;;;;5.40;3.35;;;;;;;-1.55;58.20;100368.34;5038914;28;20140;-81
2022/03/31 07:06:15;;;;;;;4.00;2.67;;;;;;;-1.44;57.79;100369.22;5040035;28;20051;-82
2022/03/31 07:08:40;;;;;;;3.92;2.55;;;;;;;-1.61;58.86;100373.47;5043197;28;20413;-81
2022/03/31 07:11:07;;;;;;;3.55;2.42;;;;;;;-1.49;58.42;100368.34;5026475;28;20032;-80
2022/03/31 07:13:33;;;;;;;4.95;2.83;;;;;;;-1.35;58.40;100370.94;5023524;28;20037;-83
2022/03/31 07:15:58;;;;;;;6.43;2.90;;;;;;;-1.42;58.21;100371.75;5022538;28;20055;-83
2022/03/31 07:18:24;;;;;;;5.35;3.28;;;;;;;-1.40;58.04;100365.81;4997584;28;20146;-81
2022/03/31 07:20:50;;;;;;;4.10;2.38;;;;;;;-1.55;58.73;100365.78;5023522;28;20459;-82
2022/03/31 07:23:18;;;;;;;4.97;2.13;;;;;;;-1.23;57.53;100372.66;5041159;28;20047;-82
2022/03/31 07:25:44;;;;;;;3.65;2.53;;;;;;;-1.65;58.53;100376.84;5038803;28;20076;-82
2022/03/31 07:28:10;;;;;;;7.05;3.72;;;;;;;-1.78;58.91;100370.00;5046637;28;20616;-83
2022/03/31 07:30:35;;;;;;;4.78;2.17;;;;;;;-1.83;59.50;100370.81;5030781;28;20041;-81
2022/03/31 07:33:03;;;;;;;4.68;2.80;;;;;;;-1.76;59.07;100371.69;5039965;28;20451;-78
2022/03/31 07:35:31;;;;;;;6.43;2.85;;;;;;;-1.84;59.20;100371.69;5042836;28;20060;-80
2022/03/31 07:37:57;;;;;;;5.35;2.88;;;;;;;-1.71;58.86;100380.28;5043037;28;20547;-82
2022/03/31 07:40:25;;;;;;;4.57;2.90;;;;;;;-1.56;58.54;100384.56;5045815;28;20435;-81
2022/03/31 07:42:51;;;;;;;3.88;2.78;;;;;;;-1.58;58.43;100381.13;5040229;28;21500;-81
2022/03/31 07:45:18;;;;;;;5.38;3.15;;;;;;;-1.75;58.80;100376.00;5005518;28;20032;-82
2022/03/31 07:47:43;;;;;;;4.80;2.90;;;;;;;-1.97;59.83;100376.78;5040805;28;20189;-79
2022/03/31 07:50:11;;;;;;;4.18;2.03;;;;;;;-1.96;59.66;100379.31;5041652;28;20044;-81
2022/03/31 07:52:38;;;;;;;7.55;2.85;;;;;;;-1.84;59.15;100364.00;5009118;28;20052;-82
2022/03/31 07:55:05;;;;;;;5.72;3.13;;;;;;;-1.76;59.04;100370.84;5041059;28;20475;-81
2022/03/31 07:57:30;;;;;;;6.53;3.25;;;;;;;-1.82;59.21;100375.13;5025146;28;20037;-81
2022/03/31 07:59:56;;;;;;;2.88;2.28;;;;;;;-1.97;59.72;100375.06;5026429;28;20027;-80
2022/03/31 08:02:24;;;;;;;5.68;2.85;;;;;;;-2.01;59.78;100368.22;5025246;28;20370;-80
2022/03/31 08:04:50;;;;;;;4.22;3.22;;;;;;;-1.72;59.02;100372.56;5038266;28;20032;-80
2022/03/31 08:07:16;;;;;;;6.95;3.53;;;;;;;-2.06;59.66;100378.44;5024165;28;20089;-78
2022/03/31 08:09:44;;;;;;;6.70;3.30;;;;;;;-1.80;59.21;100373.41;5025179;28;20060;-81
2022/03/31 08:12:10;;;;;;;5.50;3.17;;;;;;;-1.89;59.24;100383.63;5033667;28;20044;-79
2022/03/31 08:14:36;;;;;;;4.78;3.35;;;;;;;-1.74;59.17;100384.53;5026393;28;20339;-78
2022/03/31 08:17:02;;;;;;;5.50;3.38;;;;;;;-2.29;60.06;100380.91;5044116;28;21063;-80
2022/03/31 08:19:30;;;;;;;5.75;3.65;;;;;;;-2.51;61.13;100379.06;5027006;28;20037;-78
2022/03/31 08:21:56;;;;;;;5.75;2.78;;;;;;;-2.47;60.91;100391.00;5040715;28;20559;-79
2022/03/31 08:24:23;;;;;;;6.00;3.35;;;;;;;-2.33;60.42;100389.41;5025878;28;20025;-81
2022/03/31 08:26:50;;;;;;;4.13;3.22;;;;;;;-2.23;60.20;100393.72;5037684;28;20037;-80
2022/03/31 08:29:16;;;;;;;4.95;3.08;;;;;;;-2.40;60.93;100381.66;5041874;28;20051;-82
2022/03/31 08:31:43;;;;;;;5.20;3.45;;;;;;;-2.46;61.12;100395.31;5023475;28;20025;-78
2022/03/31 08:34:09;;;;;;;4.78;3.60;;;;;;;-2.18;60.25;100382.63;5020962;28;20037;-81
2022/03/31 08:36:35;;;;;;;5.25;2.60;;;;;;;-2.48;60.79;100384.19;5007478;28;20059;-81
2022/03/31 08:39:02;;;;;;;6.40;2.75;;;;;;;-2.16;60.07;100396.31;5040319;28;20060;-80
2022/03/31 08:41:28;;;;;;;6.07;3.83;;;;;;;-2.46;60.74;100392.75;5042643;28;20061;-81
2022/03/31 08:43:56;;;;;;;3.45;2.60;;;;;;;-2.58;61.01;100396.09;5040870;28;20047;-82
2022/03/31 08:46:22;;;;;;;4.60;2.58;;;;;;;-2.12;59.75;100396.31;5022119;28;20072;-80
2022/03/31 08:48:48;;;;;;;4.80;4.05;;;;;;;-1.91;59.51;100403.25;5038904;28;20040;-82
2022/03/31 08:51:14;;;;;;;4.07;3.33;;;;;;;-1.82;59.10;100405.84;5027289;28;20037;-81
2022/03/31 08:53:40;;;;;;;4.18;2.70;;;;;;;-2.05;59.33;100399.78;5038530;28;20044;-80
2022/03/31 08:56:06;;;;;;;8.52;2.63;;;;;;;-2.10;59.31;100411.72;5019729;28;20140;-79
2022/03/31 08:58:31;;;;;;;5.90;3.20;;;;;;;-2.32;60.52;100403.91;5006208;28;20083;-78
2022/03/31 09:00:57;;;;;;;4.05;2.72;;;;;;;-1.93;59.14;100411.75;5026136;28;20037;-82
2022/03/31 09:03:33;;;;;;;5.38;3.05;;;;;;;-2.12;59.51;100415.97;5023643;28;20128;-81
2022/03/31 09:05:59;;;;;;;4.00;2.67;;;;;;;-1.99;59.66;100414.31;5045817;28;20037;-81
2022/03/31 09:08:24;;;;;;;3.88;2.78;;;;;;;-2.21;59.85;100415.06;5043418;28;20029;-82
2022/03/31 09:10:54;;;;;;;5.05;2.40;;;;;;;-2.16;59.80;100419.34;5041438;28;20900;-77
2022/03/31 09:13:25;;;;;;;3.63;2.70;;;;;;;-2.18;60.17;100418.47;5039639;28;20044;-78
2022/03/31 09:15:53;;;;;;;4.10;2.35;;;;;;;-2.34;60.05;100426.06;5023595;28;20048;-81
2022/03/31 09:18:20;;;;;;;4.85;2.80;;;;;;;-2.19;60.08;100427.03;5044389;28;20475;-80
2022/03/31 09:20:47;;;;;;;5.65;3.05;;;;;;;-2.16;60.02;100421.91;5006489;28;20091;-78
2022/03/31 09:23:21;;;;;;;6.10;2.58;;;;;;;-1.98;59.12;100422.00;5007678;28;20595;-81
2022/03/31 09:25:50;;;;;;;7.10;2.53;;;;;;;-2.02;59.96;100423.69;5023640;28;20036;-81
2022/03/31 09:28:23;;;;;;;4.93;3.28;;;;;;;-2.08;59.44;100430.50;5022741;28;20029;-81
2022/03/31 09:30:51;;;;;;;7.18;2.90;;;;;;;-2.06;59.48;100421.97;5021803;28;20040;-79
2022/03/31 09:33:30;;;;;;;4.78;2.28;;;;;;;-2.00;59.45;100428.81;5040951;28;20037;-80
2022/03/31 09:36:02;;;;;;;7.80;2.78;;;;;;;-1.87;58.90;100425.47;5038895;28;20064;-82
2022/03/31 09:38:28;;;;;;;5.57;2.90;;;;;;;-1.99;59.43;100435.66;5025205;28;20040;-80
2022/03/31 09:40:54;;;;;;;5.53;2.65;;;;;;;-2.13;59.63;100433.03;5023903;28;20330;-80
2022/03/31 09:43:20;;;;;;;5.18;2.50;;;;;;;-2.11;59.55;100435.59;5024627;28;20061;-79
2022/03/31 09:45:46;;;;;;;3.70;2.20;;;;;;;-1.85;58.69;100433.16;5039715;28;20485;-81
2022/03/31 09:48:24;;;;;;;3.92;2.85;;;;;;;-2.15;59.49;100442.41;5027701;28;20047;-82
2022/03/31 09:50:50;;;;;;;5.57;3.30;;;;;;;-2.40;60.40;100426.06;5048157;28;20032;-78
2022/03/31 09:53:16;;;;;;;5.90;2.58;;;;;;;-2.33;60.44;100437.19;5023607;28;20494;-80
2022/03/31 09:55:43;;;;;;;5.68;2.75;;;;;;;-2.38;60.37;100436.28;5022736;28;20044;-80
2022/03/31 09:58:20;;;;;;;6.65;2.78;;;;;;;-2.05;59.89;100430.50;5047367;28;20964;-78
2022/03/31 10:00:47;;;;;;;4.57;2.42;;;;;;;-2.06;59.52;100436.50;5028158;28;20486;-80
2022/03/31 10:03:14;;;;;;;5.15;2.80;;;;;;;-2.31;60.05;100436.34;5044275;28;20037;-80
2022/03/31 10:05:42;;;;;;;4.53;2.72;;;;;;;-2.12;59.74;100433.88;5044953;28;20029;-79
2022/03/31 10:08:10;;;;;;;6.20;3.90;;;;;;;-2.46;60.54;100434.53;5029111;28;20036;-80
2022/03/31 10:10:37;;;;;;;5.43;2.95;;;;;;;-2.49;60.45;100438.78;5010628;28;20040;-77
2022/03/31 10:13:17;;;;;;;6.85;3.55;;;;;;;-2.71;60.65;100443.75;5040725;28;20040;-81
2022/03/31 10:15:44;;;;;;;4.85;2.85;;;;;;;-2.17;59.90;100436.44;5025973;28;20033;-81
2022/03/31 10:18:15;;;;;;;6.55;2.35;;;;;;;-2.22;59.37;100436.41;5043186;28;20045;-80
2022/03/31 10:20:53;;;;;;;5.93;3.80;;;;;;;-2.28;59.89;100438.91;5020562;28;20028;-80
2022/03/31 10:26:02;;;;;;;5.80;3.72;;;;;;;-2.30;60.22;100437.19;5048129;28;20041;-80
2022/03/31 10:28:30;;;;;;;6.43;3.40;;;;;;;-2.50;60.59;100439.63;5032022;28;20036;-79
2022/03/31 10:31:20;;;;;;;5.90;2.85;;;;;;;-2.29;60.26;100432.09;5028244;28;20124;-86
2022/03/31 10:33:56;;;;;;;7.32;3.47;;;;;;;-2.13;59.79;100433.03;5038242;28;20040;-81
2022/03/31 10:36:22;;;;;;;5.38;3.67;;;;;;;-2.30;60.18;100422.69;5046817;28;20040;-80
2022/03/31 10:38:54;;;;;;;7.15;3.03;;;;;;;-2.54;60.78;100420.81;5024140;28;20041;-83
2022/03/31 10:41:29;;;;;;;4.60;3.03;;;;;;;-2.30;59.95;100425.25;5026775;28;20056;-82
2022/03/31 10:43:58;;;;;;;7.90;3.20;;;;;;;-2.03;59.22;100424.53;5011182;28;20287;-81
2022/03/31 10:46:25;;;;;;;3.15;2.17;;;;;;;-2.48;60.31;100431.13;5045018;28;20064;-83
2022/03/31 10:48:53;;;;;;;5.00;3.38;;;;;;;-2.88;61.65;100428.25;5030729;28;20094;-80
2022/03/31 10:51:29;;;;;;;8.05;3.53;;;;;;;-2.33;60.10;100420.13;5010687;28;20537;-79
2022/03/31 10:53:54;;;;;;;5.22;2.65;;;;;;;-2.26;59.89;100416.75;5025981;28;20062;-80
2022/03/31 10:56:26;;;;;;;3.60;2.60;;;;;;;-2.13;59.79;100421.94;5022471;28;20492;-81
2022/03/31 10:58:57;;;;;;;4.83;2.93;;;;;;;-2.16;59.78;100419.34;5041431;28;20063;-81
2022/03/31 11:01:26;;;;;;;5.13;3.38;;;;;;;-2.43;60.41;100431.13;5008493;28;20036;-80
2022/03/31 11:04:02;;;;;;;4.35;3.42;;;;;;;-2.68;61.09;100433.53;5024138;28;20443;-80
2022/03/31 11:06:31;;;;;;;6.50;3.15;;;;;;;-2.37;60.54;100427.78;5042082;28;20069;-82
2022/03/31 11:08:57;;;;;;;6.18;2.70;;;;;;;-2.43;60.97;100428.59;5040190;28;20036;-82
2022/03/31 11:11:24;;;;;;;6.38;3.65;;;;;;;-2.16;59.98;100437.28;5031144;28;20418;-81
2022/03/31 11:13:51;;;;;;;7.35;3.58;;;;;;;-2.43;60.71;100423.47;5039963;28;20098;-81
2022/03/31 11:16:17;;;;;;;9.57;3.67;;;;;;;-2.21;60.32;100437.25;5029154;28;20028;-83
2022/03/31 11:18:54;;;;;;;6.28;4.50;;;;;;;-2.32;60.54;100441.44;5040908;28;20502;-79
2022/03/31 11:21:19;;;;;;;9.90;4.72;;;;;;;-2.45;61.10;100435.38;5026022;28;20043;-81
2022/03/31 11:23:47;;;;;;;5.95;3.30;;;;;;;-2.49;61.24;100436.22;5043950;28;20418;-83
2022/03/31 11:26:16;;;;;;;6.65;3.80;;;;;;;-2.20;60.39;100438.97;5008903;28;20125;-83
2022/03/31 11:28:42;;;;;;;8.40;4.38;;;;;;;-2.25;60.06;100438.94;5022907;28;20045;-78
2022/03/31 11:31:12;;;;;;;5.57;3.75;;;;;;;-2.08;60.03;100433.06;5048259;28;20041;-83